sensor_id;sensor_type;location;lat;lon;timestamp;temperature;humidity
66576;SHT31;53428;47.686;16.584;2022-08-19T00:04:34;28.53;45.94
66576;SHT31;53428;47.686;16.584;2022-08-19T00:09:35;28.43;45.93
66576;SHT31;53428;47.686;16.584;2022-08-19T00:14:34;28.31;45.95
66576;SHT31;53428;47.686;16.584;2022-08-19T00:19:35;28.28;45.84
66576;SHT31;53428;47.686;16.584;2022-08-19T00:24:34;28.18;45.89
66576;SHT31;53428;47.686;16.584;2022-08-19T00:29:34;28.08;45.98
66576;SHT31;53428;47.686;16.584;2022-08-19T00:34:33;27.76;47.04
66576;SHT31;53428;47.686;16.584;2022-08-19T00:39:32;27.05;49.45
66576;SHT31;53428;47.686;16.584;2022-08-19T00:44:32;26.50;51.14
66576;SHT31;53428;47.686;16.584;2022-08-19T00:49:36;26.06;52.56
66576;SHT31;53428;47.686;16.584;2022-08-19T00:54:37;25.78;53.08
66576;SHT31;53428;47.686;16.584;2022-08-19T00:59:40;25.62;53.74
66576;SHT31;53428;47.686;16.584;2022-08-19T01:04:40;25.52;54.47
66576;SHT31;53428;47.686;16.584;2022-08-19T01:09:39;25.35;55.09
66576;SHT31;53428;47.686;16.584;2022-08-19T01:14:40;25.11;55.31
66576;SHT31;53428;47.686;16.584;2022-08-19T01:19:41;25.08;55.82
66576;SHT31;53428;47.686;16.584;2022-08-19T01:24:41;24.93;56.22
66576;SHT31;53428;47.686;16.584;2022-08-19T01:29:42;24.91;55.34
66576;SHT31;53428;47.686;16.584;2022-08-19T01:34:41;24.86;55.41
66576;SHT31;53428;47.686;16.584;2022-08-19T01:39:45;24.75;55.50
66576;SHT31;53428;47.686;16.584;2022-08-19T01:44:45;24.72;55.85
66576;SHT31;53428;47.686;16.584;2022-08-19T01:49:44;24.60;56.58
66576;SHT31;53428;47.686;16.584;2022-08-19T01:54:43;24.51;56.69
66576;SHT31;53428;47.686;16.584;2022-08-19T01:59:43;24.29;57.10
66576;SHT31;53428;47.686;16.584;2022-08-19T02:04:44;24.29;57.42
66576;SHT31;53428;47.686;16.584;2022-08-19T02:09:44;24.14;57.95
66576;SHT31;53428;47.686;16.584;2022-08-19T02:14:44;24.08;58.13
66576;SHT31;53428;47.686;16.584;2022-08-19T02:19:43;23.90;58.75
66576;SHT31;53428;47.686;16.584;2022-08-19T02:24:43;23.84;58.97
66576;SHT31;53428;47.686;16.584;2022-08-19T02:29:42;23.67;59.32
66576;SHT31;53428;47.686;16.584;2022-08-19T02:34:42;23.85;59.37
66576;SHT31;53428;47.686;16.584;2022-08-19T02:39:45;23.73;60.56
66576;SHT31;53428;47.686;16.584;2022-08-19T02:44:45;23.46;62.48
66576;SHT31;53428;47.686;16.584;2022-08-19T02:49:45;23.27;64.41
66576;SHT31;53428;47.686;16.584;2022-08-19T02:54:44;22.88;66.75
66576;SHT31;53428;47.686;16.584;2022-08-19T02:59:44;22.83;67.70
66576;SHT31;53428;47.686;16.584;2022-08-19T03:04:43;22.67;68.61
66576;SHT31;53428;47.686;16.584;2022-08-19T03:09:42;22.61;69.06
66576;SHT31;53428;47.686;16.584;2022-08-19T03:14:42;22.48;69.34
66576;SHT31;53428;47.686;16.584;2022-08-19T03:19:41;22.43;69.60
66576;SHT31;53428;47.686;16.584;2022-08-19T03:24:42;22.39;69.68
66576;SHT31;53428;47.686;16.584;2022-08-19T03:29:43;22.23;70.09
66576;SHT31;53428;47.686;16.584;2022-08-19T03:34:42;22.23;70.06
66576;SHT31;53428;47.686;16.584;2022-08-19T03:39:42;22.24;70.26
66576;SHT31;53428;47.686;16.584;2022-08-19T03:44:41;22.30;70.08
66576;SHT31;53428;47.686;16.584;2022-08-19T03:49:41;22.27;70.41
66576;SHT31;53428;47.686;16.584;2022-08-19T03:54:40;22.32;70.31
66576;SHT31;53428;47.686;16.584;2022-08-19T03:59:40;22.54;69.55
66576;SHT31;53428;47.686;16.584;2022-08-19T04:04:42;22.50;69.97
66576;SHT31;53428;47.686;16.584;2022-08-19T04:09:41;22.27;70.05
66576;SHT31;53428;47.686;16.584;2022-08-19T04:14:41;22.29;68.83
66576;SHT31;53428;47.686;16.584;2022-08-19T04:19:40;22.32;67.99
66576;SHT31;53428;47.686;16.584;2022-08-19T04:24:41;22.32;67.94
66576;SHT31;53428;47.686;16.584;2022-08-19T04:29:40;22.16;67.44
66576;SHT31;53428;47.686;16.584;2022-08-19T04:34:40;22.20;66.06
66576;SHT31;53428;47.686;16.584;2022-08-19T04:39:41;21.86;66.83
66576;SHT31;53428;47.686;16.584;2022-08-19T04:44:59;22.12;66.29
66576;SHT31;53428;47.686;16.584;2022-08-19T04:49:58;22.12;66.30
66576;SHT31;53428;47.686;16.584;2022-08-19T04:54:58;22.16;66.78
66576;SHT31;53428;47.686;16.584;2022-08-19T04:59:57;22.21;66.80
66576;SHT31;53428;47.686;16.584;2022-08-19T05:04:58;22.37;67.09
66576;SHT31;53428;47.686;16.584;2022-08-19T05:09:59;22.50;66.86
66576;SHT31;53428;47.686;16.584;2022-08-19T05:14:59;22.63;66.67
66576;SHT31;53428;47.686;16.584;2022-08-19T05:19:59;22.69;67.04
66576;SHT31;53428;47.686;16.584;2022-08-19T05:25:19;22.84;67.50
66576;SHT31;53428;47.686;16.584;2022-08-19T05:30:19;22.68;68.44
66576;SHT31;53428;47.686;16.584;2022-08-19T05:35:18;22.81;68.22
66576;SHT31;53428;47.686;16.584;2022-08-19T05:40:17;22.91;68.13
66576;SHT31;53428;47.686;16.584;2022-08-19T05:45:17;23.02;68.11
66576;SHT31;53428;47.686;16.584;2022-08-19T05:50:16;23.20;67.64
66576;SHT31;53428;47.686;16.584;2022-08-19T05:55:16;23.20;67.54
66576;SHT31;53428;47.686;16.584;2022-08-19T06:00:15;23.41;66.75
66576;SHT31;53428;47.686;16.584;2022-08-19T06:05:15;23.47;66.26
66576;SHT31;53428;47.686;16.584;2022-08-19T06:10:14;23.57;66.46
66576;SHT31;53428;47.686;16.584;2022-08-19T06:15:14;23.42;66.96
66576;SHT31;53428;47.686;16.584;2022-08-19T06:20:14;23.50;66.83
66576;SHT31;53428;47.686;16.584;2022-08-19T06:25:15;23.57;66.62
66576;SHT31;53428;47.686;16.584;2022-08-19T06:30:14;23.75;65.96
66576;SHT31;53428;47.686;16.584;2022-08-19T06:35:14;23.98;65.87
66576;SHT31;53428;47.686;16.584;2022-08-19T06:40:15;24.21;63.79
66576;SHT31;53428;47.686;16.584;2022-08-19T06:45:14;24.24;62.26
66576;SHT31;53428;47.686;16.584;2022-08-19T06:50:14;24.52;61.52
66576;SHT31;53428;47.686;16.584;2022-08-19T06:55:13;24.94;60.01
66576;SHT31;53428;47.686;16.584;2022-08-19T07:00:13;25.02;60.12
66576;SHT31;53428;47.686;16.584;2022-08-19T07:05:13;25.13;59.58
66576;SHT31;53428;47.686;16.584;2022-08-19T07:10:12;25.15;60.36
66576;SHT31;53428;47.686;16.584;2022-08-19T07:15:12;24.87;60.34
66576;SHT31;53428;47.686;16.584;2022-08-19T07:20:12;25.04;60.18
66576;SHT31;53428;47.686;16.584;2022-08-19T07:25:11;25.59;59.35
66576;SHT31;53428;47.686;16.584;2022-08-19T07:30:12;26.04;59.32
66576;SHT31;53428;47.686;16.584;2022-08-19T07:35:12;26.33;59.08
66576;SHT31;53428;47.686;16.584;2022-08-19T07:40:12;26.24;57.85
66576;SHT31;53428;47.686;16.584;2022-08-19T07:45:12;26.24;58.21
66576;SHT31;53428;47.686;16.584;2022-08-19T07:50:11;26.81;56.40
66576;SHT31;53428;47.686;16.584;2022-08-19T07:55:11;27.22;54.25
66576;SHT31;53428;47.686;16.584;2022-08-19T08:00:10;27.60;53.55
66576;SHT31;53428;47.686;16.584;2022-08-19T08:05:10;27.61;53.38
66576;SHT31;53428;47.686;16.584;2022-08-19T08:10:28;27.55;54.21
66576;SHT31;53428;47.686;16.584;2022-08-19T08:15:27;27.76;53.43
66576;SHT31;53428;47.686;16.584;2022-08-19T08:20:26;27.40;54.19
66576;SHT31;53428;47.686;16.584;2022-08-19T08:25:25;27.25;54.44
66576;SHT31;53428;47.686;16.584;2022-08-19T08:30:26;28.01;52.94
66576;SHT31;53428;47.686;16.584;2022-08-19T08:35:26;28.45;51.92
66576;SHT31;53428;47.686;16.584;2022-08-19T08:40:36;28.50;52.16
66576;SHT31;53428;47.686;16.584;2022-08-19T08:45:49;27.95;53.76
66576;SHT31;53428;47.686;16.584;2022-08-19T08:50:52;28.53;52.95
66576;SHT31;53428;47.686;16.584;2022-08-19T08:55:53;28.19;53.44
66576;SHT31;53428;47.686;16.584;2022-08-19T09:00:53;27.81;54.08
66576;SHT31;53428;47.686;16.584;2022-08-19T09:06:02;28.52;53.12
66576;SHT31;53428;47.686;16.584;2022-08-19T09:11:08;29.08;51.30
66576;SHT31;53428;47.686;16.584;2022-08-19T09:16:17;29.12;51.26
66576;SHT31;53428;47.686;16.584;2022-08-19T09:21:21;29.66;49.82
66576;SHT31;53428;47.686;16.584;2022-08-19T09:26:22;29.14;51.47
66576;SHT31;53428;47.686;16.584;2022-08-19T09:31:26;29.80;50.05
66576;SHT31;53428;47.686;16.584;2022-08-19T09:36:27;29.90;49.82
66576;SHT31;53428;47.686;16.584;2022-08-19T09:41:32;30.16;49.04
66576;SHT31;53428;47.686;16.584;2022-08-19T09:46:31;30.47;47.99
66576;SHT31;53428;47.686;16.584;2022-08-19T09:51:30;30.79;47.75
66576;SHT31;53428;47.686;16.584;2022-08-19T09:56:30;31.26;45.99
66576;SHT31;53428;47.686;16.584;2022-08-19T10:01:31;30.24;48.28
66576;SHT31;53428;47.686;16.584;2022-08-19T10:06:31;30.23;48.39
66576;SHT31;53428;47.686;16.584;2022-08-19T10:11:34;29.92;48.44
66576;SHT31;53428;47.686;16.584;2022-08-19T10:16:35;29.51;49.34
66576;SHT31;53428;47.686;16.584;2022-08-19T10:21:35;29.15;50.07
66576;SHT31;53428;47.686;16.584;2022-08-19T10:26:37;27.85;55.90
66576;SHT31;53428;47.686;16.584;2022-08-19T10:31:37;27.05;59.51
66576;SHT31;53428;47.686;16.584;2022-08-19T10:36:36;26.72;62.03
66576;SHT31;53428;47.686;16.584;2022-08-19T10:41:38;25.86;65.12
66576;SHT31;53428;47.686;16.584;2022-08-19T10:46:41;25.55;68.26
66576;SHT31;53428;47.686;16.584;2022-08-19T10:51:41;26.41;66.86
66576;SHT31;53428;47.686;16.584;2022-08-19T10:56:59;28.50;60.86
66576;SHT31;53428;47.686;16.584;2022-08-19T11:01:59;30.11;56.24
66576;SHT31;53428;47.686;16.584;2022-08-19T11:06:59;30.90;55.64
66576;SHT31;53428;47.686;16.584;2022-08-19T11:11:58;29.38;57.14
66576;SHT31;53428;47.686;16.584;2022-08-19T11:16:57;29.12;59.41
66576;SHT31;53428;47.686;16.584;2022-08-19T11:21:57;29.45;56.03
66576;SHT31;53428;47.686;16.584;2022-08-19T11:27:05;28.86;56.59
66576;SHT31;53428;47.686;16.584;2022-08-19T11:32:08;28.70;56.74
66576;SHT31;53428;47.686;16.584;2022-08-19T11:37:08;28.55;58.51
66576;SHT31;53428;47.686;16.584;2022-08-19T11:42:08;31.00;53.85
66576;SHT31;53428;47.686;16.584;2022-08-19T11:47:25;31.77;50.71
66576;SHT31;53428;47.686;16.584;2022-08-19T11:52:25;30.83;52.26
66576;SHT31;53428;47.686;16.584;2022-08-19T11:57:24;29.41;55.33
66576;SHT31;53428;47.686;16.584;2022-08-19T12:02:23;28.74;56.46
66576;SHT31;53428;47.686;16.584;2022-08-19T12:07:23;28.26;57.49
66576;SHT31;53428;47.686;16.584;2022-08-19T12:12:23;28.04;58.16
66576;SHT31;53428;47.686;16.584;2022-08-19T12:17:25;27.68;58.95
66576;SHT31;53428;47.686;16.584;2022-08-19T12:22:25;27.37;61.86
66576;SHT31;53428;47.686;16.584;2022-08-19T12:27:25;27.07;62.83
66576;SHT31;53428;47.686;16.584;2022-08-19T12:32:24;27.15;63.05
66576;SHT31;53428;47.686;16.584;2022-08-19T12:37:25;26.68;64.83
66576;SHT31;53428;47.686;16.584;2022-08-19T12:42:24;25.94;68.45
66576;SHT31;53428;47.686;16.584;2022-08-19T12:47:24;25.46;70.21
66576;SHT31;53428;47.686;16.584;2022-08-19T12:52:26;25.08;71.12
66576;SHT31;53428;47.686;16.584;2022-08-19T12:57:27;24.56;74.08
66576;SHT31;53428;47.686;16.584;2022-08-19T13:02:26;24.14;78.07
66576;SHT31;53428;47.686;16.584;2022-08-19T13:07:26;24.25;82.03
66576;SHT31;53428;47.686;16.584;2022-08-19T13:12:25;24.45;78.33
66576;SHT31;53428;47.686;16.584;2022-08-19T13:17:25;24.45;77.77
66576;SHT31;53428;47.686;16.584;2022-08-19T13:22:24;24.42;79.03
66576;SHT31;53428;47.686;16.584;2022-08-19T13:27:24;24.63;77.35
66576;SHT31;53428;47.686;16.584;2022-08-19T13:32:23;25.06;76.46
66576;SHT31;53428;47.686;16.584;2022-08-19T13:37:41;26.92;71.19
66576;SHT31;53428;47.686;16.584;2022-08-19T13:42:44;29.35;64.71
66576;SHT31;53428;47.686;16.584;2022-08-19T13:47:51;31.92;56.77
66576;SHT31;53428;47.686;16.584;2022-08-19T13:52:52;31.85;53.73
66576;SHT31;53428;47.686;16.584;2022-08-19T13:57:55;33.22;49.84
66576;SHT31;53428;47.686;16.584;2022-08-19T14:02:55;31.03;54.13
66576;SHT31;53428;47.686;16.584;2022-08-19T14:07:56;29.17;58.59
66576;SHT31;53428;47.686;16.584;2022-08-19T14:12:58;28.21;60.84
66576;SHT31;53428;47.686;16.584;2022-08-19T14:17:58;28.00;61.17
66576;SHT31;53428;47.686;16.584;2022-08-19T14:22:57;27.94;59.64
66576;SHT31;53428;47.686;16.584;2022-08-19T14:27:58;28.81;58.29
66576;SHT31;53428;47.686;16.584;2022-08-19T14:33:00;28.66;58.88
66576;SHT31;53428;47.686;16.584;2022-08-19T14:38:05;30.49;54.38
66576;SHT31;53428;47.686;16.584;2022-08-19T14:43:05;30.45;53.57
66576;SHT31;53428;47.686;16.584;2022-08-19T14:48:05;31.15;52.06
66576;SHT31;53428;47.686;16.584;2022-08-19T14:53:07;31.22;52.07
66576;SHT31;53428;47.686;16.584;2022-08-19T14:58:06;31.71;49.30
66576;SHT31;53428;47.686;16.584;2022-08-19T15:03:06;31.36;49.87
66576;SHT31;53428;47.686;16.584;2022-08-19T15:08:06;32.41;47.97
66576;SHT31;53428;47.686;16.584;2022-08-19T15:13:05;34.27;44.14
66576;SHT31;53428;47.686;16.584;2022-08-19T15:18:05;33.65;45.03
66576;SHT31;53428;47.686;16.584;2022-08-19T15:23:04;32.53;47.39
66576;SHT31;53428;47.686;16.584;2022-08-19T15:28:04;30.72;49.94
66576;SHT31;53428;47.686;16.584;2022-08-19T15:33:04;31.16;49.22
66576;SHT31;53428;47.686;16.584;2022-08-19T15:38:03;32.50;46.26
66576;SHT31;53428;47.686;16.584;2022-08-19T15:43:04;33.55;44.22
66576;SHT31;53428;47.686;16.584;2022-08-19T15:48:04;33.17;44.97
66576;SHT31;53428;47.686;16.584;2022-08-19T15:53:06;32.71;45.27
66576;SHT31;53428;47.686;16.584;2022-08-19T15:58:09;32.98;45.02
66576;SHT31;53428;47.686;16.584;2022-08-19T16:03:28;34.21;42.78
66576;SHT31;53428;47.686;16.584;2022-08-19T16:08:45;34.18;42.82
66576;SHT31;53428;47.686;16.584;2022-08-19T16:13:49;32.13;46.56
66576;SHT31;53428;47.686;16.584;2022-08-19T16:18:49;31.55;48.03
66576;SHT31;53428;47.686;16.584;2022-08-19T16:23:51;31.17;49.81
66576;SHT31;53428;47.686;16.584;2022-08-19T16:28:51;31.36;49.23
66576;SHT31;53428;47.686;16.584;2022-08-19T16:33:50;30.90;50.63
66576;SHT31;53428;47.686;16.584;2022-08-19T16:38:51;29.89;52.97
66576;SHT31;53428;47.686;16.584;2022-08-19T16:43:51;28.70;56.07
66576;SHT31;53428;47.686;16.584;2022-08-19T16:48:51;28.15;57.68
66576;SHT31;53428;47.686;16.584;2022-08-19T16:53:50;27.53;59.34
66576;SHT31;53428;47.686;16.584;2022-08-19T16:58:51;27.46;59.76
66576;SHT31;53428;47.686;16.584;2022-08-19T17:03:50;27.07;60.99
66576;SHT31;53428;47.686;16.584;2022-08-19T17:08:53;26.91;61.19
66576;SHT31;53428;47.686;16.584;2022-08-19T17:13:53;26.62;62.11
66576;SHT31;53428;47.686;16.584;2022-08-19T17:18:56;26.36;62.98
66576;SHT31;53428;47.686;16.584;2022-08-19T17:23:57;25.90;65.48
66576;SHT31;53428;47.686;16.584;2022-08-19T17:28:58;25.76;66.58
66576;SHT31;53428;47.686;16.584;2022-08-19T17:33:58;25.57;67.07
66576;SHT31;53428;47.686;16.584;2022-08-19T17:39:00;25.48;67.24
66576;SHT31;53428;47.686;16.584;2022-08-19T17:44:00;25.21;68.37
66576;SHT31;53428;47.686;16.584;2022-08-19T17:48:59;25.02;69.12
66576;SHT31;53428;47.686;16.584;2022-08-19T17:53:59;24.96;69.37
66576;SHT31;53428;47.686;16.584;2022-08-19T17:58:59;24.96;68.78
66576;SHT31;53428;47.686;16.584;2022-08-19T18:03:58;25.03;68.68
66576;SHT31;53428;47.686;16.584;2022-08-19T18:08:59;25.04;68.36
66576;SHT31;53428;47.686;16.584;2022-08-19T18:13:59;25.06;68.45
66576;SHT31;53428;47.686;16.584;2022-08-19T18:18:58;25.03;68.46
66576;SHT31;53428;47.686;16.584;2022-08-19T18:23:58;24.87;69.58
66576;SHT31;53428;47.686;16.584;2022-08-19T18:28:57;24.73;71.38
66576;SHT31;53428;47.686;16.584;2022-08-19T18:33:57;24.51;72.96
66576;SHT31;53428;47.686;16.584;2022-08-19T18:38:56;23.88;76.13
66576;SHT31;53428;47.686;16.584;2022-08-19T18:44:14;23.47;80.07
66576;SHT31;53428;47.686;16.584;2022-08-19T18:49:33;23.43;79.33
66576;SHT31;53428;47.686;16.584;2022-08-19T18:54:32;23.50;79.36
66576;SHT31;53428;47.686;16.584;2022-08-19T18:59:32;23.52;79.18
66576;SHT31;53428;47.686;16.584;2022-08-19T19:04:32;23.42;79.79
66576;SHT31;53428;47.686;16.584;2022-08-19T19:09:35;23.36;79.40
66576;SHT31;53428;47.686;16.584;2022-08-19T19:14:40;23.42;78.66
66576;SHT31;53428;47.686;16.584;2022-08-19T19:19:41;23.47;78.19
66576;SHT31;53428;47.686;16.584;2022-08-19T19:24:41;23.30;78.79
66576;SHT31;53428;47.686;16.584;2022-08-19T19:29:43;23.04;81.15
66576;SHT31;53428;47.686;16.584;2022-08-19T19:34:43;22.96;82.31
66576;SHT31;53428;47.686;16.584;2022-08-19T19:39:43;22.81;82.95
66576;SHT31;53428;47.686;16.584;2022-08-19T19:44:43;22.77;81.59
66576;SHT31;53428;47.686;16.584;2022-08-19T19:49:48;22.57;86.32
66576;SHT31;53428;47.686;16.584;2022-08-19T19:54:49;22.40;86.88
66576;SHT31;53428;47.686;16.584;2022-08-19T19:59:48;22.47;86.42
66576;SHT31;53428;47.686;16.584;2022-08-19T20:04:48;22.47;86.68
66576;SHT31;53428;47.686;16.584;2022-08-19T20:09:48;22.53;88.76
66576;SHT31;53428;47.686;16.584;2022-08-19T20:14:47;22.53;88.27
66576;SHT31;53428;47.686;16.584;2022-08-19T20:19:47;22.51;88.27
66576;SHT31;53428;47.686;16.584;2022-08-19T20:24:46;22.44;86.41
66576;SHT31;53428;47.686;16.584;2022-08-19T20:29:46;22.36;86.92
66576;SHT31;53428;47.686;16.584;2022-08-19T20:34:46;22.33;87.13
66576;SHT31;53428;47.686;16.584;2022-08-19T20:39:47;22.37;88.55
66576;SHT31;53428;47.686;16.584;2022-08-19T20:44:47;22.32;88.05
66576;SHT31;53428;47.686;16.584;2022-08-19T20:49:46;22.33;88.63
66576;SHT31;53428;47.686;16.584;2022-08-19T20:54:46;22.16;88.25
66576;SHT31;53428;47.686;16.584;2022-08-19T20:59:45;22.02;88.17
66576;SHT31;53428;47.686;16.584;2022-08-19T21:04:45;22.13;87.46
66576;SHT31;53428;47.686;16.584;2022-08-19T21:09:44;22.06;88.30
66576;SHT31;53428;47.686;16.584;2022-08-19T21:14:45;21.93;89.72
66576;SHT31;53428;47.686;16.584;2022-08-19T21:19:45;21.79;89.06
66576;SHT31;53428;47.686;16.584;2022-08-19T21:24:44;21.44;88.42
66576;SHT31;53428;47.686;16.584;2022-08-19T21:29:43;21.27;89.68
66576;SHT31;53428;47.686;16.584;2022-08-19T21:34:43;21.28;90.53
66576;SHT31;53428;47.686;16.584;2022-08-19T21:39:45;21.51;89.25
66576;SHT31;53428;47.686;16.584;2022-08-19T21:44:44;21.45;89.06
66576;SHT31;53428;47.686;16.584;2022-08-19T21:49:43;21.45;89.53
66576;SHT31;53428;47.686;16.584;2022-08-19T21:54:43;21.48;88.76
66576;SHT31;53428;47.686;16.584;2022-08-19T21:59:42;21.35;89.40
66576;SHT31;53428;47.686;16.584;2022-08-19T22:04:42;21.31;89.90
66576;SHT31;53428;47.686;16.584;2022-08-19T22:09:43;21.26;90.41
66576;SHT31;53428;47.686;16.584;2022-08-19T22:14:42;21.28;90.15
66576;SHT31;53428;47.686;16.584;2022-08-19T22:19:42;21.08;90.37
66576;SHT31;53428;47.686;16.584;2022-08-19T22:24:42;21.03;90.60
66576;SHT31;53428;47.686;16.584;2022-08-19T22:29:41;21.20;90.09
66576;SHT31;53428;47.686;16.584;2022-08-19T22:34:41;21.31;89.98
66576;SHT31;53428;47.686;16.584;2022-08-19T22:39:40;21.27;89.98
66576;SHT31;53428;47.686;16.584;2022-08-19T22:44:40;21.24;89.90
66576;SHT31;53428;47.686;16.584;2022-08-19T22:49:39;21.31;89.81
66576;SHT31;53428;47.686;16.584;2022-08-19T22:54:39;21.30;89.82
66576;SHT31;53428;47.686;16.584;2022-08-19T22:59:38;21.30;90.12
66576;SHT31;53428;47.686;16.584;2022-08-19T23:04:37;21.07;90.91
66576;SHT31;53428;47.686;16.584;2022-08-19T23:09:37;20.92;91.06
66576;SHT31;53428;47.686;16.584;2022-08-19T23:14:36;20.86;90.79
66576;SHT31;53428;47.686;16.584;2022-08-19T23:19:36;20.83;90.63
66576;SHT31;53428;47.686;16.584;2022-08-19T23:24:36;20.77;91.15
66576;SHT31;53428;47.686;16.584;2022-08-19T23:29:35;20.68;91.71
66576;SHT31;53428;47.686;16.584;2022-08-19T23:34:55;20.69;91.49
66576;SHT31;53428;47.686;16.584;2022-08-19T23:39:54;20.76;91.19
66576;SHT31;53428;47.686;16.584;2022-08-19T23:45:01;20.73;91.39
66576;SHT31;53428;47.686;16.584;2022-08-19T23:50:01;20.69;91.23
66576;SHT31;53428;47.686;16.584;2022-08-19T23:55:04;20.87;88.67
